sensor_id;sensor_type;location;lat;lon;timestamp;pressure;altitude;pressure_sealevel;temperature;humidity
55550;BME280;41397;49.972;18.944;2022-12-18T00:01:29;103466.71;;;-1.42;78.50
55550;BME280;41397;49.972;18.944;2022-12-18T00:04:32;103464.08;;;-1.38;78.69
55550;BME280;41397;49.972;18.944;2022-12-18T00:07:33;103475.74;;;-1.34;78.46
55550;BME280;41397;49.972;18.944;2022-12-18T00:10:34;103470.38;;;-1.34;78.63
55550;BME280;41397;49.972;18.944;2022-12-18T00:13:36;103484.59;;;-1.44;78.16
55550;BME280;41397;49.972;18.944;2022-12-18T00:16:39;103488.15;;;-1.45;78.22
55550;BME280;41397;49.972;18.944;2022-12-18T00:19:40;103480.93;;;-1.51;78.14
55550;BME280;41397;49.972;18.944;2022-12-18T00:22:41;103489.94;;;-1.46;78.32
55550;BME280;41397;49.972;18.944;2022-12-18T00:25:43;103487.95;;;-1.62;77.97
55550;BME280;41397;49.972;18.944;2022-12-18T00:28:45;103496.16;;;-1.50;78.06
55550;BME280;41397;49.972;18.944;2022-12-18T00:31:47;103492.65;;;-1.43;78.19
55550;BME280;41397;49.972;18.944;2022-12-18T00:34:51;103490.86;;;-1.42;77.93
55550;BME280;41397;49.972;18.944;2022-12-18T00:37:52;103502.33;;;-1.57;77.68
55550;BME280;41397;49.972;18.944;2022-12-18T00:40:53;103506.91;;;-1.48;77.95
55550;BME280;41397;49.972;18.944;2022-12-18T00:43:55;103505.23;;;-1.39;78.09
55550;BME280;41397;49.972;18.944;2022-12-18T00:46:56;103507.80;;;-1.48;77.48
55550;BME280;41397;49.972;18.944;2022-12-18T00:49:57;103513.83;;;-1.69;77.76
55550;BME280;41397;49.972;18.944;2022-12-18T00:52:58;103522.80;;;-1.65;77.86
55550;BME280;41397;49.972;18.944;2022-12-18T00:56:00;103518.47;;;-1.55;78.15
55550;BME280;41397;49.972;18.944;2022-12-18T00:59:01;103532.88;;;-1.47;78.05
55550;BME280;41397;49.972;18.944;2022-12-18T01:02:02;103536.33;;;-1.58;77.83
55550;BME280;41397;49.972;18.944;2022-12-18T01:05:04;103532.79;;;-1.53;77.82
55550;BME280;41397;49.972;18.944;2022-12-18T01:08:05;103538.05;;;-1.63;77.58
55550;BME280;41397;49.972;18.944;2022-12-18T01:11:11;103548.06;;;-1.49;77.78
55550;BME280;41397;49.972;18.944;2022-12-18T01:14:12;103547.20;;;-1.47;77.64
55550;BME280;41397;49.972;18.944;2022-12-18T01:17:14;103541.80;;;-1.50;77.75
55550;BME280;41397;49.972;18.944;2022-12-18T01:20:15;103550.54;;;-1.65;77.84
55550;BME280;41397;49.972;18.944;2022-12-18T01:23:17;103554.12;;;-1.66;77.52
55550;BME280;41397;49.972;18.944;2022-12-18T01:26:18;103553.28;;;-1.60;77.06
55550;BME280;41397;49.972;18.944;2022-12-18T01:29:20;103553.19;;;-1.68;77.30
55550;BME280;41397;49.972;18.944;2022-12-18T01:32:21;103548.33;;;-1.96;77.87
55550;BME280;41397;49.972;18.944;2022-12-18T01:35:25;103556.60;;;-1.80;77.85
55550;BME280;41397;49.972;18.944;2022-12-18T01:38:28;103556.77;;;-1.67;77.86
55550;BME280;41397;49.972;18.944;2022-12-18T01:41:32;103551.50;;;-1.60;78.07
55550;BME280;41397;49.972;18.944;2022-12-18T01:48:02;103557.05;;;-1.47;78.09
55550;BME280;41397;49.972;18.944;2022-12-18T01:51:06;103566.95;;;-1.40;78.03
55550;BME280;41397;49.972;18.944;2022-12-18T01:54:10;103574.15;;;-1.38;77.89
55550;BME280;41397;49.972;18.944;2022-12-18T01:57:11;103575.07;;;-1.36;77.54
55550;BME280;41397;49.972;18.944;2022-12-18T02:00:16;103578.66;;;-1.35;77.46
55550;BME280;41397;49.972;18.944;2022-12-18T02:03:17;103584.02;;;-1.35;77.56
55550;BME280;41397;49.972;18.944;2022-12-18T02:06:44;103580.45;;;-1.36;77.44
55550;BME280;41397;49.972;18.944;2022-12-18T02:09:37;103597.52;;;-1.29;77.31
55550;BME280;41397;49.972;18.944;2022-12-18T02:13:38;103597.48;;;-1.33;77.19
55550;BME280;41397;49.972;18.944;2022-12-18T02:19:27;103608.16;;;-1.37;76.86
55550;BME280;41397;49.972;18.944;2022-12-18T02:28:55;103615.38;;;-1.32;77.22
55550;BME280;41397;49.972;18.944;2022-12-18T02:32:03;103619.86;;;-1.31;77.31
55550;BME280;41397;49.972;18.944;2022-12-18T02:35:18;103620.72;;;-1.36;77.43
55550;BME280;41397;49.972;18.944;2022-12-18T02:38:23;103620.81;;;-1.26;77.30
55550;BME280;41397;49.972;18.944;2022-12-18T02:41:26;103611.91;;;-1.24;77.06
55550;BME280;41397;49.972;18.944;2022-12-18T02:44:27;103617.34;;;-1.19;77.11
55550;BME280;41397;49.972;18.944;2022-12-18T02:47:34;103619.99;;;-1.22;76.55
55550;BME280;41397;49.972;18.944;2022-12-18T02:50:45;103627.19;;;-1.18;76.66
55550;BME280;41397;49.972;18.944;2022-12-18T02:54:00;103627.22;;;-1.15;76.80
55550;BME280;41397;49.972;18.944;2022-12-18T03:00:23;103656.77;;;-1.17;76.91
55550;BME280;41397;49.972;18.944;2022-12-18T03:06:44;103655.91;;;-1.14;77.09
55550;BME280;41397;49.972;18.944;2022-12-18T03:09:50;103660.31;;;-1.19;76.86
55550;BME280;41397;49.972;18.944;2022-12-18T03:13:08;103655.01;;;-1.15;77.02
55550;BME280;41397;49.972;18.944;2022-12-18T03:16:18;103652.36;;;-1.12;76.95
55550;BME280;41397;49.972;18.944;2022-12-18T03:19:26;103649.74;;;-1.05;76.88
55550;BME280;41397;49.972;18.944;2022-12-18T03:22:32;103657.79;;;-1.05;76.88
55550;BME280;41397;49.972;18.944;2022-12-18T03:25:38;103661.41;;;-1.03;76.78
55550;BME280;41397;49.972;18.944;2022-12-18T03:28:47;103661.39;;;-1.05;76.29
55550;BME280;41397;49.972;18.944;2022-12-18T03:31:56;103655.12;;;-1.04;76.70
55550;BME280;41397;49.972;18.944;2022-12-18T03:35:05;103654.15;;;-1.10;76.17
55550;BME280;41397;49.972;18.944;2022-12-18T03:38:07;103662.07;;;-1.21;76.06
55550;BME280;41397;49.972;18.944;2022-12-18T03:44:30;103676.47;;;-1.16;76.77
55550;BME280;41397;49.972;18.944;2022-12-18T03:54:02;103678.25;;;-1.15;76.77
55550;BME280;41397;49.972;18.944;2022-12-18T03:57:11;103680.01;;;-1.19;76.77
55550;BME280;41397;49.972;18.944;2022-12-18T04:00:17;103683.66;;;-1.14;76.59
55550;BME280;41397;49.972;18.944;2022-12-18T04:03:20;103686.41;;;-1.09;76.74
55550;BME280;41397;49.972;18.944;2022-12-18T04:06:22;103683.73;;;-1.09;76.53
55550;BME280;41397;49.972;18.944;2022-12-18T04:09:24;103694.47;;;-1.09;76.48
55550;BME280;41397;49.972;18.944;2022-12-18T04:12:29;103695.34;;;-1.10;76.30
55550;BME280;41397;49.972;18.944;2022-12-18T04:15:33;103706.94;;;-1.14;76.29
55550;BME280;41397;49.972;18.944;2022-12-18T04:18:35;103717.49;;;-1.26;75.99
55550;BME280;41397;49.972;18.944;2022-12-18T04:21:36;103719.12;;;-1.38;76.40
55550;BME280;41397;49.972;18.944;2022-12-18T04:24:38;103720.13;;;-1.31;76.59
55550;BME280;41397;49.972;18.944;2022-12-18T04:27:39;103716.55;;;-1.30;76.88
55550;BME280;41397;49.972;18.944;2022-12-18T04:30:40;103729.15;;;-1.24;76.61
55550;BME280;41397;49.972;18.944;2022-12-18T04:33:42;103729.12;;;-1.27;76.29
55550;BME280;41397;49.972;18.944;2022-12-18T04:36:43;103728.19;;;-1.31;76.40
55550;BME280;41397;49.972;18.944;2022-12-18T04:39:44;103729.98;;;-1.30;76.45
55550;BME280;41397;49.972;18.944;2022-12-18T04:42:45;103743.15;;;-1.47;75.21
55550;BME280;41397;49.972;18.944;2022-12-18T04:45:47;103748.59;;;-1.41;75.69
55550;BME280;41397;49.972;18.944;2022-12-18T04:48:48;103746.90;;;-1.36;75.68
55550;BME280;41397;49.972;18.944;2022-12-18T04:51:49;103734.45;;;-1.30;75.88
55550;BME280;41397;49.972;18.944;2022-12-18T04:54:51;103753.28;;;-1.27;75.93
55550;BME280;41397;49.972;18.944;2022-12-18T04:57:52;103759.59;;;-1.24;76.06
55550;BME280;41397;49.972;18.944;2022-12-18T05:00:53;103769.52;;;-1.20;76.01
55550;BME280;41397;49.972;18.944;2022-12-18T05:03:54;103773.14;;;-1.16;76.13
55550;BME280;41397;49.972;18.944;2022-12-18T05:06:56;103774.94;;;-1.15;75.99
55550;BME280;41397;49.972;18.944;2022-12-18T05:10:00;103775.74;;;-1.22;75.78
55550;BME280;41397;49.972;18.944;2022-12-18T05:13:01;103767.65;;;-1.25;75.87
55550;BME280;41397;49.972;18.944;2022-12-18T05:16:03;103773.06;;;-1.21;75.75
55550;BME280;41397;49.972;18.944;2022-12-18T05:19:05;103780.26;;;-1.20;76.00
55550;BME280;41397;49.972;18.944;2022-12-18T05:22:08;103786.54;;;-1.18;76.08
55550;BME280;41397;49.972;18.944;2022-12-18T05:25:10;103785.68;;;-1.15;76.32
55550;BME280;41397;49.972;18.944;2022-12-18T05:28:11;103787.54;;;-1.11;76.16
55550;BME280;41397;49.972;18.944;2022-12-18T05:31:13;103789.22;;;-1.18;75.99
55550;BME280;41397;49.972;18.944;2022-12-18T05:34:16;103790.19;;;-1.14;76.38
55550;BME280;41397;49.972;18.944;2022-12-18T05:37:17;103784.78;;;-1.16;76.29
55550;BME280;41397;49.972;18.944;2022-12-18T05:40:19;103783.02;;;-1.14;75.94
55550;BME280;41397;49.972;18.944;2022-12-18T05:43:21;103778.55;;;-1.13;76.10
55550;BME280;41397;49.972;18.944;2022-12-18T05:46:25;103785.72;;;-1.14;75.89
55550;BME280;41397;49.972;18.944;2022-12-18T05:49:26;103786.61;;;-1.13;75.84
55550;BME280;41397;49.972;18.944;2022-12-18T05:52:27;103788.37;;;-1.15;75.65
55550;BME280;41397;49.972;18.944;2022-12-18T05:55:29;103793.73;;;-1.17;75.49
55550;BME280;41397;49.972;18.944;2022-12-18T05:58:34;103813.39;;;-1.18;75.23
55550;BME280;41397;49.972;18.944;2022-12-18T06:01:35;103807.12;;;-1.20;74.75
55550;BME280;41397;49.972;18.944;2022-12-18T06:04:36;103809.63;;;-1.30;74.51
55550;BME280;41397;49.972;18.944;2022-12-18T06:07:37;103813.16;;;-1.33;74.62
55550;BME280;41397;49.972;18.944;2022-12-18T06:10:42;103818.53;;;-1.33;74.75
55550;BME280;41397;49.972;18.944;2022-12-18T06:13:43;103825.61;;;-1.37;74.88
55550;BME280;41397;49.972;18.944;2022-12-18T06:16:44;103816.56;;;-1.43;75.03
55550;BME280;41397;49.972;18.944;2022-12-18T06:19:45;103820.19;;;-1.41;75.40
55550;BME280;41397;49.972;18.944;2022-12-18T06:22:50;103824.70;;;-1.39;75.53
55550;BME280;41397;49.972;18.944;2022-12-18T06:25:51;103821.05;;;-1.42;75.34
55550;BME280;41397;49.972;18.944;2022-12-18T06:28:53;103816.38;;;-1.54;75.52
55550;BME280;41397;49.972;18.944;2022-12-18T06:31:54;103823.59;;;-1.51;75.47
55550;BME280;41397;49.972;18.944;2022-12-18T06:34:58;103830.75;;;-1.50;75.24
55550;BME280;41397;49.972;18.944;2022-12-18T06:38:01;103835.31;;;-1.46;75.33
55550;BME280;41397;49.972;18.944;2022-12-18T06:41:12;103840.69;;;-1.45;75.31
55550;BME280;41397;49.972;18.944;2022-12-18T06:44:14;103839.78;;;-1.45;75.34
55550;BME280;41397;49.972;18.944;2022-12-18T06:47:18;103855.05;;;-1.43;75.06
55550;BME280;41397;49.972;18.944;2022-12-18T06:50:26;103862.16;;;-1.45;74.93
55550;BME280;41397;49.972;18.944;2022-12-18T06:53:27;103859.16;;;-1.63;74.66
55550;BME280;41397;49.972;18.944;2022-12-18T06:56:29;103859.36;;;-1.52;75.24
55550;BME280;41397;49.972;18.944;2022-12-18T06:59:31;103863.95;;;-1.45;75.26
55550;BME280;41397;49.972;18.944;2022-12-18T07:02:34;103871.20;;;-1.40;75.12
55550;BME280;41397;49.972;18.944;2022-12-18T07:05:41;103876.66;;;-1.35;75.10
55550;BME280;41397;49.972;18.944;2022-12-18T07:08:42;103872.18;;;-1.36;75.05
55550;BME280;41397;49.972;18.944;2022-12-18T07:11:43;103877.61;;;-1.31;75.17
55550;BME280;41397;49.972;18.944;2022-12-18T07:14:45;103881.14;;;-1.34;75.14
55550;BME280;41397;49.972;18.944;2022-12-18T07:17:46;103874.87;;;-1.36;75.08
55550;BME280;41397;49.972;18.944;2022-12-18T07:20:47;103884.77;;;-1.32;75.22
55550;BME280;41397;49.972;18.944;2022-12-18T07:23:49;103892.06;;;-1.25;74.96
55550;BME280;41397;49.972;18.944;2022-12-18T07:26:50;103890.23;;;-1.26;74.92
55550;BME280;41397;49.972;18.944;2022-12-18T07:29:53;103901.13;;;-1.18;74.90
55550;BME280;41397;49.972;18.944;2022-12-18T07:32:57;103901.21;;;-1.12;74.78
55550;BME280;41397;49.972;18.944;2022-12-18T07:36:00;103902.19;;;-1.08;74.77
55550;BME280;41397;49.972;18.944;2022-12-18T07:39:02;103912.04;;;-1.07;74.42
55550;BME280;41397;49.972;18.944;2022-12-18T07:42:03;103910.30;;;-1.05;74.03
55550;BME280;41397;49.972;18.944;2022-12-18T07:45:16;103914.77;;;-1.04;73.98
55550;BME280;41397;49.972;18.944;2022-12-18T07:48:18;103909.35;;;-1.07;73.68
55550;BME280;41397;49.972;18.944;2022-12-18T07:51:19;103909.35;;;-1.07;73.93
55550;BME280;41397;49.972;18.944;2022-12-18T07:54:20;103905.81;;;-1.05;73.91
55550;BME280;41397;49.972;18.944;2022-12-18T07:57:22;103900.44;;;-1.06;73.37
55550;BME280;41397;49.972;18.944;2022-12-18T08:00:23;103907.55;;;-1.08;73.08
55550;BME280;41397;49.972;18.944;2022-12-18T08:03:24;103902.23;;;-1.05;73.47
55550;BME280;41397;49.972;18.944;2022-12-18T08:06:25;103911.33;;;-0.97;73.20
55550;BME280;41397;49.972;18.944;2022-12-18T08:09:27;103911.18;;;-1.06;73.11
55550;BME280;41397;49.972;18.944;2022-12-18T08:12:28;103915.66;;;-1.05;73.31
55550;BME280;41397;49.972;18.944;2022-12-18T08:15:29;103916.70;;;-0.97;73.00
55550;BME280;41397;49.972;18.944;2022-12-18T08:18:35;103918.66;;;-0.87;73.34
55550;BME280;41397;49.972;18.944;2022-12-18T08:21:40;103907.96;;;-0.82;72.59
55550;BME280;41397;49.972;18.944;2022-12-18T08:24:42;103914.27;;;-0.80;72.71
55550;BME280;41397;49.972;18.944;2022-12-18T08:27:43;103927.80;;;-0.74;72.20
55550;BME280;41397;49.972;18.944;2022-12-18T08:30:45;103930.48;;;-0.76;72.02
55550;BME280;41397;49.972;18.944;2022-12-18T08:33:50;103936.07;;;-0.60;72.52
55550;BME280;41397;49.972;18.944;2022-12-18T08:36:53;103940.63;;;-0.55;72.65
55550;BME280;41397;49.972;18.944;2022-12-18T08:39:57;103937.09;;;-0.52;72.19
55550;BME280;41397;49.972;18.944;2022-12-18T08:43:04;103931.98;;;-0.34;72.64
55550;BME280;41397;49.972;18.944;2022-12-18T08:46:26;103941.92;;;-0.30;71.82
55550;BME280;41397;49.972;18.944;2022-12-18T08:49:29;103944.69;;;-0.24;72.25
55550;BME280;41397;49.972;18.944;2022-12-18T08:52:31;103945.02;;;0.01;72.33
55550;BME280;41397;49.972;18.944;2022-12-18T08:55:33;103953.36;;;0.24;71.95
55550;BME280;41397;49.972;18.944;2022-12-18T08:58:36;103953.49;;;0.33;70.90
55550;BME280;41397;49.972;18.944;2022-12-18T09:01:37;103949.33;;;0.63;71.13
55550;BME280;41397;49.972;18.944;2022-12-18T09:04:39;103952.26;;;0.89;71.36
55550;BME280;41397;49.972;18.944;2022-12-18T09:07:41;103954.25;;;1.11;70.17
55550;BME280;41397;49.972;18.944;2022-12-18T09:10:47;103959.94;;;1.48;69.32
55550;BME280;41397;49.972;18.944;2022-12-18T09:13:49;103958.16;;;1.52;67.42
55550;BME280;41397;49.972;18.944;2022-12-18T09:16:51;103969.12;;;1.75;68.09
55550;BME280;41397;49.972;18.944;2022-12-18T09:19:52;103967.38;;;1.91;67.25
55550;BME280;41397;49.972;18.944;2022-12-18T09:22:54;103978.17;;;1.86;64.42
55550;BME280;41397;49.972;18.944;2022-12-18T09:25:59;103978.21;;;1.95;64.21
55550;BME280;41397;49.972;18.944;2022-12-18T09:29:03;103966.63;;;2.16;64.03
55550;BME280;41397;49.972;18.944;2022-12-18T09:32:05;103976.61;;;2.39;64.73
55550;BME280;41397;49.972;18.944;2022-12-18T09:35:07;103970.35;;;2.55;63.84
55550;BME280;41397;49.972;18.944;2022-12-18T09:38:12;103974.85;;;2.49;60.31
55550;BME280;41397;49.972;18.944;2022-12-18T09:44:33;103980.12;;;2.18;60.17
55550;BME280;41397;49.972;18.944;2022-12-18T09:47:37;103974.77;;;2.32;59.71
55550;BME280;41397;49.972;18.944;2022-12-18T09:50:40;103972.88;;;2.05;58.23
55550;BME280;41397;49.972;18.944;2022-12-18T09:53:54;103989.91;;;1.99;58.49
55550;BME280;41397;49.972;18.944;2022-12-18T09:56:58;103987.20;;;1.96;58.96
55550;BME280;41397;49.972;18.944;2022-12-18T10:00:15;103980.97;;;2.06;58.55
55550;BME280;41397;49.972;18.944;2022-12-18T10:03:12;103970.14;;;1.97;57.61
55550;BME280;41397;49.972;18.944;2022-12-18T10:06:21;103980.93;;;1.98;58.14
55550;BME280;41397;49.972;18.944;2022-12-18T10:09:30;103971.95;;;1.99;58.90
55550;BME280;41397;49.972;18.944;2022-12-18T10:29:12;103974.33;;;1.47;58.56
55550;BME280;41397;49.972;18.944;2022-12-18T10:32:18;103956.27;;;1.37;58.97
55550;BME280;41397;49.972;18.944;2022-12-18T10:35:25;103956.27;;;1.37;59.19
55550;BME280;41397;49.972;18.944;2022-12-18T10:38:29;103952.61;;;1.29;59.27
55550;BME280;41397;49.972;18.944;2022-12-18T10:41:32;103950.84;;;1.31;59.29
55550;BME280;41397;49.972;18.944;2022-12-18T10:44:34;103950.85;;;1.34;59.51
55550;BME280;41397;49.972;18.944;2022-12-18T10:47:36;103957.12;;;1.28;59.26
55550;BME280;41397;49.972;18.944;2022-12-18T10:50:37;103954.45;;;1.35;59.54
55550;BME280;41397;49.972;18.944;2022-12-18T10:53:41;103941.80;;;1.27;59.39
55550;BME280;41397;49.972;18.944;2022-12-18T10:56:44;103937.35;;;1.31;59.83
55550;BME280;41397;49.972;18.944;2022-12-18T10:59:52;103933.84;;;1.43;59.50
55550;BME280;41397;49.972;18.944;2022-12-18T11:02:54;103931.19;;;1.52;59.85
55550;BME280;41397;49.972;18.944;2022-12-18T11:06:22;103924.93;;;1.58;59.68
55550;BME280;41397;49.972;18.944;2022-12-18T11:09:22;103929.49;;;1.68;59.10
55550;BME280;41397;49.972;18.944;2022-12-18T11:12:24;103936.59;;;1.55;59.10
55550;BME280;41397;49.972;18.944;2022-12-18T11:15:29;103929.47;;;1.62;58.93
55550;BME280;41397;49.972;18.944;2022-12-18T11:18:35;103918.71;;;1.71;58.89
55550;BME280;41397;49.972;18.944;2022-12-18T11:21:41;103920.51;;;1.70;58.45
55550;BME280;41397;49.972;18.944;2022-12-18T11:24:49;103921.44;;;1.72;58.87
55550;BME280;41397;49.972;18.944;2022-12-18T11:27:55;103917.80;;;1.67;58.97
55550;BME280;41397;49.972;18.944;2022-12-18T11:37:32;103932.75;;;1.19;58.44
55550;BME280;41397;49.972;18.944;2022-12-18T11:40:36;103926.43;;;1.13;58.89
55550;BME280;41397;49.972;18.944;2022-12-18T11:43:49;103917.23;;;0.89;59.21
55550;BME280;41397;49.972;18.944;2022-12-18T11:47:00;103914.43;;;0.74;59.77
55550;BME280;41397;49.972;18.944;2022-12-18T11:50:15;103930.34;;;0.51;60.25
55550;BME280;41397;49.972;18.944;2022-12-18T11:53:19;103928.63;;;0.59;60.82
55550;BME280;41397;49.972;18.944;2022-12-18T11:56:30;103931.32;;;0.59;60.98
55550;BME280;41397;49.972;18.944;2022-12-18T11:59:48;103940.17;;;0.49;61.16
55550;BME280;41397;49.972;18.944;2022-12-18T12:06:21;103945.53;;;0.46;61.68
55550;BME280;41397;49.972;18.944;2022-12-18T12:09:34;103939.28;;;0.48;61.74
55550;BME280;41397;49.972;18.944;2022-12-18T12:12:50;103949.13;;;0.44;61.64
55550;BME280;41397;49.972;18.944;2022-12-18T12:15:59;103948.38;;;0.58;61.62
55550;BME280;41397;49.972;18.944;2022-12-18T12:25:33;103947.62;;;0.71;61.64
55550;BME280;41397;49.972;18.944;2022-12-18T12:35:20;103955.55;;;0.59;61.85
55550;BME280;41397;49.972;18.944;2022-12-18T12:38:30;103969.48;;;0.19;62.64
55550;BME280;41397;49.972;18.944;2022-12-18T12:41:34;103959.68;;;0.25;62.60
55550;BME280;41397;49.972;18.944;2022-12-18T12:44:53;103962.20;;;0.12;62.70
55550;BME280;41397;49.972;18.944;2022-12-18T12:47:58;103962.17;;;0.11;63.31
55550;BME280;41397;49.972;18.944;2022-12-18T12:51:04;103960.16;;;-0.06;64.08
55550;BME280;41397;49.972;18.944;2022-12-18T12:54:16;103962.82;;;-0.10;64.22
55550;BME280;41397;49.972;18.944;2022-12-18T13:04:06;103973.83;;;0.10;64.02
55550;BME280;41397;49.972;18.944;2022-12-18T13:07:13;103975.30;;;-0.14;64.07
55550;BME280;41397;49.972;18.944;2022-12-18T13:10:40;103978.06;;;-0.11;64.13
55550;BME280;41397;49.972;18.944;2022-12-18T13:13:57;103988.70;;;-0.18;64.30
55550;BME280;41397;49.972;18.944;2022-12-18T13:16:42;103988.50;;;-0.31;64.88
55550;BME280;41397;49.972;18.944;2022-12-18T13:19:43;103986.67;;;-0.35;67.02
55550;BME280;41397;49.972;18.944;2022-12-18T13:22:48;103989.20;;;-0.46;65.85
55550;BME280;41397;49.972;18.944;2022-12-18T13:32:26;103990.26;;;-0.34;65.60
55550;BME280;41397;49.972;18.944;2022-12-18T13:35:37;103991.97;;;-0.41;65.69
55550;BME280;41397;49.972;18.944;2022-12-18T13:38:40;103996.53;;;-0.35;65.97
55550;BME280;41397;49.972;18.944;2022-12-18T13:41:41;103999.18;;;-0.37;65.95
55550;BME280;41397;49.972;18.944;2022-12-18T13:44:43;103997.85;;;-0.65;66.33
55550;BME280;41397;49.972;18.944;2022-12-18T13:47:45;104004.13;;;-0.63;66.80
55550;BME280;41397;49.972;18.944;2022-12-18T13:50:54;103992.48;;;-0.63;66.92
55550;BME280;41397;49.972;18.944;2022-12-18T13:54:18;103996.68;;;-0.81;67.27
55550;BME280;41397;49.972;18.944;2022-12-18T14:00:27;103993.90;;;-0.87;67.89
55550;BME280;41397;49.972;18.944;2022-12-18T14:03:30;103991.21;;;-0.87;67.82
55550;BME280;41397;49.972;18.944;2022-12-18T14:06:31;103998.28;;;-0.92;68.29
55550;BME280;41397;49.972;18.944;2022-12-18T14:09:40;103996.30;;;-1.02;68.25
55550;BME280;41397;49.972;18.944;2022-12-18T14:12:49;103999.84;;;-1.05;68.54
55550;BME280;41397;49.972;18.944;2022-12-18T14:16:00;103996.16;;;-1.10;68.79
55550;BME280;41397;49.972;18.944;2022-12-18T14:19:02;104006.85;;;-1.15;68.94
55550;BME280;41397;49.972;18.944;2022-12-18T14:22:04;104002.22;;;-1.22;69.25
55550;BME280;41397;49.972;18.944;2022-12-18T14:25:20;104002.91;;;-1.32;69.31
55550;BME280;41397;49.972;18.944;2022-12-18T14:28:22;104005.45;;;-1.40;69.71
55550;BME280;41397;49.972;18.944;2022-12-18T14:31:26;104003.43;;;-1.51;69.93
55550;BME280;41397;49.972;18.944;2022-12-18T14:34:29;104005.27;;;-1.49;69.79
55550;BME280;41397;49.972;18.944;2022-12-18T14:37:36;104002.59;;;-1.49;69.87
55550;BME280;41397;49.972;18.944;2022-12-18T14:40:37;104002.26;;;-1.64;70.35
55550;BME280;41397;49.972;18.944;2022-12-18T14:43:43;103997.51;;;-1.77;70.52
55550;BME280;41397;49.972;18.944;2022-12-18T14:46:46;103991.20;;;-1.81;70.73
55550;BME280;41397;49.972;18.944;2022-12-18T14:49:48;103997.33;;;-1.87;70.90
55550;BME280;41397;49.972;18.944;2022-12-18T14:52:50;104009.79;;;-1.89;71.20
55550;BME280;41397;49.972;18.944;2022-12-18T14:55:51;104003.54;;;-1.89;71.30
55550;BME280;41397;49.972;18.944;2022-12-18T14:58:58;104004.31;;;-1.95;71.47
55550;BME280;41397;49.972;18.944;2022-12-18T15:05:24;104008.58;;;-2.05;71.72
55550;BME280;41397;49.972;18.944;2022-12-18T15:11:46;104027.41;;;-2.02;71.95
55550;BME280;41397;49.972;18.944;2022-12-18T15:14:47;104016.70;;;-2.00;71.91
55550;BME280;41397;49.972;18.944;2022-12-18T15:18:13;104023.80;;;-2.02;71.74
55550;BME280;41397;49.972;18.944;2022-12-18T15:21:10;104034.59;;;-2.01;71.99
55550;BME280;41397;49.972;18.944;2022-12-18T15:24:18;104035.35;;;-2.06;72.00
55550;BME280;41397;49.972;18.944;2022-12-18T15:27:30;104036.31;;;-2.03;71.93
55550;BME280;41397;49.972;18.944;2022-12-18T15:30:32;104030.88;;;-2.06;71.85
55550;BME280;41397;49.972;18.944;2022-12-18T15:33:35;104045.19;;;-2.05;71.63
55550;BME280;41397;49.972;18.944;2022-12-18T15:36:37;104035.17;;;-2.14;71.97
55550;BME280;41397;49.972;18.944;2022-12-18T15:39:39;104036.07;;;-2.13;71.77
55550;BME280;41397;49.972;18.944;2022-12-18T15:42:40;104038.80;;;-2.12;71.76
55550;BME280;41397;49.972;18.944;2022-12-18T15:45:54;104041.42;;;-2.15;71.85
55550;BME280;41397;49.972;18.944;2022-12-18T15:48:57;104043.19;;;-2.15;71.75
55550;BME280;41397;49.972;18.944;2022-12-18T15:51:59;104045.69;;;-2.23;71.82
55550;BME280;41397;49.972;18.944;2022-12-18T15:55:03;104049.23;;;-2.24;71.98
55550;BME280;41397;49.972;18.944;2022-12-18T15:58:16;104060.78;;;-2.27;72.03
55550;BME280;41397;49.972;18.944;2022-12-18T16:01:23;104063.39;;;-2.30;71.72
55550;BME280;41397;49.972;18.944;2022-12-18T16:04:25;104071.41;;;-2.31;71.87
55550;BME280;41397;49.972;18.944;2022-12-18T16:07:31;104073.13;;;-2.33;71.90
55550;BME280;41397;49.972;18.944;2022-12-18T16:10:32;104073.13;;;-2.33;71.71
55550;BME280;41397;49.972;18.944;2022-12-18T16:13:33;104067.73;;;-2.35;71.83
55550;BME280;41397;49.972;18.944;2022-12-18T16:16:35;104072.17;;;-2.37;71.74
55550;BME280;41397;49.972;18.944;2022-12-18T16:19:42;104072.59;;;-2.56;72.06
55550;BME280;41397;49.972;18.944;2022-12-18T16:22:45;104077.88;;;-2.58;72.32
55550;BME280;41397;49.972;18.944;2022-12-18T16:25:46;104079.59;;;-2.61;72.44
55550;BME280;41397;49.972;18.944;2022-12-18T16:28:48;104088.38;;;-2.67;72.70
55550;BME280;41397;49.972;18.944;2022-12-18T16:31:50;104083.02;;;-2.67;72.80
55550;BME280;41397;49.972;18.944;2022-12-18T16:34:52;104081.16;;;-2.70;72.73
55550;BME280;41397;49.972;18.944;2022-12-18T16:37:53;104081.09;;;-2.73;72.87
55550;BME280;41397;49.972;18.944;2022-12-18T16:40:54;104080.90;;;-2.79;72.78
55550;BME280;41397;49.972;18.944;2022-12-18T16:44:08;104076.08;;;-2.92;73.17
55550;BME280;41397;49.972;18.944;2022-12-18T16:47:16;104085.59;;;-3.03;73.25
55550;BME280;41397;49.972;18.944;2022-12-18T16:50:18;104075.07;;;-2.97;72.90
55550;BME280;41397;49.972;18.944;2022-12-18T16:53:19;104069.51;;;-3.05;73.03
55550;BME280;41397;49.972;18.944;2022-12-18T16:56:23;104069.51;;;-3.05;72.96
55550;BME280;41397;49.972;18.944;2022-12-18T16:59:25;104068.40;;;-3.13;72.88
55550;BME280;41397;49.972;18.944;2022-12-18T17:02:27;104074.70;;;-3.11;72.81
55550;BME280;41397;49.972;18.944;2022-12-18T17:05:28;104062.84;;;-3.51;73.54
55550;BME280;41397;49.972;18.944;2022-12-18T17:08:30;104051.91;;;-3.59;74.25
55550;BME280;41397;49.972;18.944;2022-12-18T17:11:34;104066.69;;;-3.71;74.00
55550;BME280;41397;49.972;18.944;2022-12-18T17:14:36;104058.63;;;-3.73;74.09
55550;BME280;41397;49.972;18.944;2022-12-18T17:17:37;104048.76;;;-3.75;74.19
55550;BME280;41397;49.972;18.944;2022-12-18T17:20:39;104039.41;;;-3.90;74.32
55550;BME280;41397;49.972;18.944;2022-12-18T17:23:43;104038.87;;;-4.07;74.73
55550;BME280;41397;49.972;18.944;2022-12-18T17:26:45;104033.62;;;-4.32;75.74
55550;BME280;41397;49.972;18.944;2022-12-18T17:29:47;104037.52;;;-4.77;77.07